• Join FlightAware (Why Join?)
  • Login
  • US Flag 
04:46PM EDT


 

Airport Tracker/Info


-or-


 

Live Flight TrackerFlight Track Log ✈ N700QA ✈ 02-Apr-2014 ✈ KRNO - KSAN

Flight Track Log - Related Links

Times and Time Zones

All times are in EDT time to prevent confusion due to time zone crossing. See the N700QA flight status page for this flight to view local times or setup timezone preferences in your user account.

Time Position Orientation Groundspeed Altitude Reporting Facility
EDT Latitude Longitude Course Direction KTS MPH feet Rate Location/Type
03:26PM 38.6880 -119.5303 169° South  Level FlightAware Approximate
03:26PM 39.5667 -119.7833 172° South 200 230 7,400  Level Northern Cal TRACON
03:27PM 38.5862 -119.5088 173° South  Level FlightAware Approximate
03:27PM 39.6167 -119.8167 333° Northwest 222 255 9,900  Level Northern Cal TRACON
03:28PM 38.4839 -119.4917 173° South  Level FlightAware Approximate
03:28PM 39.6536 -119.7864 32° Northeast 240 276 11,800  Level Oakland Center
03:29PM 38.3811 -119.4833 180° South  Level FlightAware Approximate
03:29PM 39.6047 -119.6975 126° Southeast 278 320 14,900  Level Oakland Center
03:30PM 38.2792 -119.4708 165° South  Level FlightAware Approximate
03:30PM 39.5211 -119.6783 170° South 304 350 16,900  Level Oakland Center
03:31PM 38.1769 -119.4587 171° South  Level FlightAware Approximate
03:31PM 39.4308 -119.6633 173° South 323 372 19,200  Level Oakland Center
03:32PM 38.0749 -119.4393 172° South  Level FlightAware Approximate
03:32PM 39.3367 -119.6475 173° South 334 384 20,900  Level Oakland Center
03:33PM 39.2336 -119.6331 174° South 356 410 21,000  Climbing Oakland Center
03:34PM 39.1258 -119.6161 173° South 379 436 21,000 480 Level Oakland Center
03:35PM 39.0161 -119.5986 173° South 392 451 22,000 900 Climbing Oakland Center
03:36PM 38.9072 -119.5836 174° South 395 455 22,900 1,020 Climbing Oakland Center
03:37PM 38.7742 -119.5639 173° South 400 460 24,100 1,200 Climbing Oakland Center
03:38PM 38.6628 -119.5478 174° South 401 461 25,400 1,380 Climbing Oakland Center
03:39PM 38.5539 -119.5303 173° South 401 461 27,000 840 Climbing Oakland Center
03:40PM 38.4419 -119.5169 175° South 400 460 27,200 780 Climbing Oakland Center
03:41PM 38.3214 -119.4975 173° South 424 488 28,600 1,440 Climbing Oakland Center
03:42PM 38.2067 -119.4822 174° South 422 486 30,200 1,140 Climbing Oakland Center
03:43PM 38.0967 -119.4631 172° South 406 467 31,000 420 Climbing Oakland Center
03:45PM 37.9814 -119.4447 173° South 406 467 31,100  Climbing Oakland Center
03:46PM 37.8547 -119.4308 175° South 436 502 31,000  Descending Oakland Center
03:47PM 37.7358 -119.4136 173° South 436 502 31,100  Climbing Oakland Center
03:48PM 37.5953 -119.3939 174° South 434 499 31,100  Level Oakland Center
03:49PM 37.4767 -119.3767 173° South 430 495 31,100 -60 Level Oakland Center
03:50PM 37.3567 -119.3597 174° South 430 495 31,000 360 Descending Oakland Center
03:51PM 37.2372 -119.3431 174° South 431 496 31,900 1,020 Climbing Oakland Center
03:52PM 37.1200 -119.3253 173° South 428 493 33,100 1,200 Climbing Oakland Center
03:53PM 37.0078 -119.3103 174° South 410 472 34,400 900 Climbing Oakland Center
03:54PM 36.8994 -119.2958 174° South 394 453 35,000 240 Climbing Oakland Center
03:55PM 36.7869 -119.2786 173° South 405 466 35,000  Level Oakland Center
03:56PM 36.6483 -119.2594 174° South 414 476 35,100  Climbing Oakland Center
03:57PM 36.5328 -119.2433 174° South 417 480 35,100  Level Oakland Center
03:58PM 36.4189 -119.2275 174° South 416 479 35,100  Level Oakland Center
03:59PM 36.2972 -119.1967 168° South 419 482 35,100 -60 Level Oakland Center
04:00PM 36.1922 -119.1517 161° South 421 484 35,000 -60 Descending Oakland Center
04:01PM 36.0778 -119.1169 166° South 421 484 35,000  Level Oakland Center
04:02PM 35.9381 -119.0700 165° South 421 484 35,100  Climbing Los Angeles Center
04:03PM 35.8217 -119.0311 165° South 424 488 35,100  Level Los Angeles Center
04:04PM 35.7022 -118.9914 165° South 432 497 35,100 -60 Level Los Angeles Center
04:05PM 35.5803 -118.9528 166° South 440 506 35,000 -60 Descending Los Angeles Center
04:06PM 35.4614 -118.9150 165° South 441 507 35,000  Level Los Angeles Center
04:07PM 35.3389 -118.8744 165° South 446 513 35,100  Climbing Los Angeles Center
04:08PM 35.1953 -118.8283 165° South 445 512 35,100 -60 Level Los Angeles Center
04:09PM 35.0764 -118.7889 165° South 445 512 35,000  Descending Los Angeles Center
04:10PM 34.9561 -118.7517 166° South 445 512 35,100  Climbing Los Angeles Center
04:11PM 34.8339 -118.7133 166° South 445 512 35,100  Level Los Angeles Center
04:12PM 34.7150 -118.6767 166° South 444 511 35,100 -360 Level Los Angeles Center
04:13PM 34.5961 -118.6392 165° South 442 509 34,400 -780 Descending Los Angeles Center
04:14PM 34.4564 -118.5811 161° South 446 513 33,500 -480 Descending Los Angeles Center
04:16PM 34.2414 -118.4086 145° Southeast 462 532 33,000 -180 Descending Los Angeles Center
04:18PM 34.1336 -118.3283 148° Southeast 458 527 33,000 -240 Level Los Angeles Center
04:19PM 34.0214 -118.2422 148° Southeast 457 526 32,600 -1,260 Descending Los Angeles Center
04:20PM 33.9147 -118.1611 148° Southeast 456 525 30,500 -2,160 Descending Los Angeles Center
04:21PM 33.8067 -118.0786 148° Southeast 457 526 28,100 -2,160 Descending Los Angeles Center
04:22PM 33.6939 -117.9944 148° Southeast 467 537 26,000 -2,580 Descending Los Angeles Center
04:23PM 33.5636 -117.8983 148° Southeast 457 526 22,800 -2,760 Descending Los Angeles Center
04:24PM 33.4581 -117.8200 148° Southeast 447 514 20,300 -2,280 Descending Los Angeles Center
04:25PM 33.3722 -117.7111 133° Southeast 448 516 18,100 -1,680 Descending Los Angeles Center
04:26PM 33.2892 -117.6122 135° Southeast 426 490 16,900 -1,380 Descending Los Angeles Center
04:27PM 33.1833 -117.5000 138° Southeast 398 458 15,100 -1,380 Descending Southern California TRACON
04:28PM 33.1000 -117.4333 146° Southeast 377 434 14,000 -1,740 Descending Southern California TRACON
04:29PM 33.0153 -117.3708 148° Southeast 374 430 11,700 -2,100 Descending Los Angeles Center
04:30PM 32.9356 -117.3117 148° Southeast 344 396 9,800 -2,100 Descending Los Angeles Center
04:31PM 32.8719 -117.2533 142° Southeast 299 344 7,400 -2,280 Descending Los Angeles Center
04:32PM 32.8108 -117.1958 142° Southeast 286 329 5,100 -1,200 Descending Los Angeles Center
04:33PM 32.7692 -117.1033 118° Southeast 276 318 5,000 -360 Descending Los Angeles Center
04:34PM 32.7500 -117.0167 105° East 266 306 4,500 -480 Descending Southern California TRACON
04:35PM 32.7167 -116.9667 128° Southeast 243 280 4,100 -480 Descending Southern California TRACON
04:36PM 32.6833 -117.0000 220° Southwest 228 262 3,600 -900 Descending Southern California TRACON
04:37PM 32.7000 -117.0500 292° West 151 174 2,300 -960 Descending Southern California TRACON
04:38PM 32.7167 -117.1000 292° West 143 165 1,700 -840 Descending Southern California TRACON
04:39PM 32.7167 -117.1333 270° West 124 143 700 -600 Descending Southern California TRACON
04:40PM 32.7322 -117.1839 290° West 132 152 400 -240 Descending Los Angeles Center